LIPA METAR and TAF | Updated Today

LIPA METAR

Aviano Air Base

Observation time: 58 min. ago

LIPA 061755Z 05005KT 9999 FEW060 SCT080 01/M02 Q1033

Need help? Read our tutorial on how to read METARs or read the parsed version below.

Aviano Air Base (LIPA) METAR

  • Weather conditions on Mon, 06 Feb 2023 17:55:00 +0000 (58 min. ago):
  • Present conditions: Dry
  • Clouds: A few at 1829 meters; scattered at 2438 meters
  • Visibility: Greater than 10 km
  • Wind: 50 degrees at 5 knots
  • Temperature: 1 celsius
  • Dew point: -2 celsius
  • Pressure: 1033 millibars
  • Remarks: None


Useful to know...

LIPA TAF

Aviano Air Base

TAF LIPA 061400Z 0615/0624 18005KT 9999 SCT030 SCT060 BECMG 0616/0618 07006KT
Observation time: 4:53 hr. ago
Need help? Read our tutorial on how to read TAFs or read the parsed version below.

Parsed version of TAF for Aviano Air Base (LIPA)

  • From 06 February at 15:00 UTC, to day 06 of the month at 24:00 UTC
  • Clouds: Scattered at 914 meters; scattered at 1829 meters
  • Visibility: Greater than 10 km
  • Wind: 180 degrees at 5
  • Expected to arise soon, from 06 February at 16:00 UTC, to day 06 of the month at 18:00 UTC
  • Wind: 70 degrees at 6